sensor_id;sensor_type;location;lat;lon;timestamp;P1;durP1;ratioP1;P2;durP2;ratioP2
6757;SDS011;3416;53.074;8.822;2023-06-22T00:00:09;9.33;;;8.00;;
6757;SDS011;3416;53.074;8.822;2023-06-22T00:02:38;9.50;;;8.60;;
6757;SDS011;3416;53.074;8.822;2023-06-22T00:05:06;9.27;;;8.27;;
6757;SDS011;3416;53.074;8.822;2023-06-22T00:07:33;9.03;;;8.23;;
6757;SDS011;3416;53.074;8.822;2023-06-22T00:10:00;8.60;;;7.63;;
6757;SDS011;3416;53.074;8.822;2023-06-22T00:12:27;13.77;;;9.30;;
6757;SDS011;3416;53.074;8.822;2023-06-22T00:14:54;10.10;;;8.90;;
6757;SDS011;3416;53.074;8.822;2023-06-22T00:17:21;11.60;;;9.53;;
6757;SDS011;3416;53.074;8.822;2023-06-22T00:19:48;11.13;;;8.80;;
6757;SDS011;3416;53.074;8.822;2023-06-22T00:22:19;10.30;;;9.40;;
6757;SDS011;3416;53.074;8.822;2023-06-22T00:24:54;9.87;;;8.50;;
6757;SDS011;3416;53.074;8.822;2023-06-22T00:27:21;10.63;;;9.63;;
6757;SDS011;3416;53.074;8.822;2023-06-22T00:29:48;10.93;;;9.80;;
6757;SDS011;3416;53.074;8.822;2023-06-22T00:32:14;9.53;;;8.60;;
6757;SDS011;3416;53.074;8.822;2023-06-22T00:34:42;12.57;;;9.60;;
6757;SDS011;3416;53.074;8.822;2023-06-22T00:37:09;12.30;;;9.17;;
6757;SDS011;3416;53.074;8.822;2023-06-22T00:39:38;11.10;;;10.00;;
6757;SDS011;3416;53.074;8.822;2023-06-22T00:42:05;10.20;;;9.33;;
6757;SDS011;3416;53.074;8.822;2023-06-22T00:44:32;10.20;;;9.30;;
6757;SDS011;3416;53.074;8.822;2023-06-22T00:46:59;12.00;;;10.30;;
6757;SDS011;3416;53.074;8.822;2023-06-22T00:49:26;10.17;;;9.23;;
6757;SDS011;3416;53.074;8.822;2023-06-22T00:51:53;9.37;;;8.43;;
6757;SDS011;3416;53.074;8.822;2023-06-22T00:54:20;11.27;;;10.20;;
6757;SDS011;3416;53.074;8.822;2023-06-22T00:56:52;13.83;;;10.90;;
6757;SDS011;3416;53.074;8.822;2023-06-22T00:59:21;12.53;;;9.57;;
6757;SDS011;3416;53.074;8.822;2023-06-22T01:01:49;11.70;;;10.47;;
6757;SDS011;3416;53.074;8.822;2023-06-22T01:04:16;14.80;;;10.70;;
6757;SDS011;3416;53.074;8.822;2023-06-22T01:06:45;11.17;;;9.90;;
6757;SDS011;3416;53.074;8.822;2023-06-22T01:09:22;11.90;;;10.77;;
6757;SDS011;3416;53.074;8.822;2023-06-22T01:11:57;13.93;;;10.97;;
6757;SDS011;3416;53.074;8.822;2023-06-22T01:14:28;12.60;;;11.50;;
6757;SDS011;3416;53.074;8.822;2023-06-22T01:16:59;12.67;;;11.47;;
6757;SDS011;3416;53.074;8.822;2023-06-22T01:19:35;14.17;;;11.50;;
6757;SDS011;3416;53.074;8.822;2023-06-22T01:22:06;14.00;;;12.63;;
6757;SDS011;3416;53.074;8.822;2023-06-22T01:24:41;16.43;;;14.53;;
6757;SDS011;3416;53.074;8.822;2023-06-22T01:27:20;16.60;;;14.10;;
6757;SDS011;3416;53.074;8.822;2023-06-22T01:29:59;14.60;;;13.10;;
6757;SDS011;3416;53.074;8.822;2023-06-22T01:32:31;15.60;;;14.10;;
6757;SDS011;3416;53.074;8.822;2023-06-22T01:35:01;17.57;;;13.57;;
6757;SDS011;3416;53.074;8.822;2023-06-22T01:37:30;16.57;;;13.53;;
6757;SDS011;3416;53.074;8.822;2023-06-22T01:39:58;15.07;;;13.67;;
6757;SDS011;3416;53.074;8.822;2023-06-22T01:42:27;15.70;;;14.17;;
6757;SDS011;3416;53.074;8.822;2023-06-22T01:44:54;17.47;;;15.87;;
6757;SDS011;3416;53.074;8.822;2023-06-22T01:47:25;18.43;;;16.53;;
6757;SDS011;3416;53.074;8.822;2023-06-22T01:49:53;17.53;;;15.80;;
6757;SDS011;3416;53.074;8.822;2023-06-22T01:52:21;16.03;;;14.53;;
6757;SDS011;3416;53.074;8.822;2023-06-22T01:54:48;16.30;;;14.77;;
6757;SDS011;3416;53.074;8.822;2023-06-22T01:57:27;18.00;;;16.20;;
6757;SDS011;3416;53.074;8.822;2023-06-22T01:59:58;17.30;;;15.47;;
6757;SDS011;3416;53.074;8.822;2023-06-22T02:02:32;18.37;;;16.50;;
6757;SDS011;3416;53.074;8.822;2023-06-22T02:05:05;16.37;;;14.73;;
6757;SDS011;3416;53.074;8.822;2023-06-22T02:07:37;17.83;;;15.93;;
6757;SDS011;3416;53.074;8.822;2023-06-22T02:10:07;20.13;;;17.67;;
6757;SDS011;3416;53.074;8.822;2023-06-22T02:12:37;18.23;;;16.43;;
6757;SDS011;3416;53.074;8.822;2023-06-22T02:15:06;18.27;;;16.50;;
6757;SDS011;3416;53.074;8.822;2023-06-22T02:17:36;18.47;;;16.30;;
6757;SDS011;3416;53.074;8.822;2023-06-22T02:20:03;17.57;;;15.57;;
6757;SDS011;3416;53.074;8.822;2023-06-22T02:22:33;16.60;;;14.83;;
6757;SDS011;3416;53.074;8.822;2023-06-22T02:25:00;16.63;;;15.03;;
6757;SDS011;3416;53.074;8.822;2023-06-22T02:27:27;15.27;;;13.87;;
6757;SDS011;3416;53.074;8.822;2023-06-22T02:29:54;14.77;;;13.37;;
6757;SDS011;3416;53.074;8.822;2023-06-22T02:32:21;17.43;;;15.73;;
6757;SDS011;3416;53.074;8.822;2023-06-22T02:34:49;17.70;;;15.80;;
6757;SDS011;3416;53.074;8.822;2023-06-22T02:37:17;16.63;;;14.97;;
6757;SDS011;3416;53.074;8.822;2023-06-22T02:39:44;16.57;;;14.97;;
6757;SDS011;3416;53.074;8.822;2023-06-22T02:42:11;16.77;;;14.03;;
6757;SDS011;3416;53.074;8.822;2023-06-22T02:44:38;15.33;;;13.73;;
6757;SDS011;3416;53.074;8.822;2023-06-22T02:47:05;15.90;;;14.10;;
6757;SDS011;3416;53.074;8.822;2023-06-22T02:49:32;15.50;;;13.07;;
6757;SDS011;3416;53.074;8.822;2023-06-22T02:52:02;17.93;;;14.23;;
6757;SDS011;3416;53.074;8.822;2023-06-22T02:54:30;14.30;;;12.87;;
6757;SDS011;3416;53.074;8.822;2023-06-22T02:56:58;14.97;;;13.57;;
6757;SDS011;3416;53.074;8.822;2023-06-22T02:59:27;19.27;;;16.20;;
6757;SDS011;3416;53.074;8.822;2023-06-22T03:01:54;17.17;;;15.27;;
6757;SDS011;3416;53.074;8.822;2023-06-22T03:04:21;16.53;;;14.00;;
6757;SDS011;3416;53.074;8.822;2023-06-22T03:06:48;15.80;;;14.37;;
6757;SDS011;3416;53.074;8.822;2023-06-22T03:09:18;17.60;;;16.00;;
6757;SDS011;3416;53.074;8.822;2023-06-22T03:11:45;18.83;;;16.83;;
6757;SDS011;3416;53.074;8.822;2023-06-22T03:14:12;16.50;;;14.90;;
6757;SDS011;3416;53.074;8.822;2023-06-22T03:16:39;17.60;;;15.50;;
6757;SDS011;3416;53.074;8.822;2023-06-22T03:19:06;17.97;;;16.17;;
6757;SDS011;3416;53.074;8.822;2023-06-22T03:21:33;18.13;;;16.43;;
6757;SDS011;3416;53.074;8.822;2023-06-22T03:24:04;18.67;;;16.73;;
6757;SDS011;3416;53.074;8.822;2023-06-22T03:26:34;18.20;;;15.30;;
6757;SDS011;3416;53.074;8.822;2023-06-22T03:29:01;18.50;;;16.70;;
6757;SDS011;3416;53.074;8.822;2023-06-22T03:31:28;18.80;;;16.90;;
6757;SDS011;3416;53.074;8.822;2023-06-22T03:34:02;20.57;;;18.40;;
6757;SDS011;3416;53.074;8.822;2023-06-22T03:36:29;18.03;;;16.13;;
6757;SDS011;3416;53.074;8.822;2023-06-22T03:38:57;20.37;;;17.67;;
6757;SDS011;3416;53.074;8.822;2023-06-22T03:41:24;21.43;;;17.30;;
6757;SDS011;3416;53.074;8.822;2023-06-22T03:43:53;20.70;;;18.70;;
6757;SDS011;3416;53.074;8.822;2023-06-22T03:46:19;17.37;;;15.70;;
6757;SDS011;3416;53.074;8.822;2023-06-22T03:48:46;19.63;;;17.63;;
6757;SDS011;3416;53.074;8.822;2023-06-22T03:51:13;21.60;;;19.30;;
6757;SDS011;3416;53.074;8.822;2023-06-22T03:53:40;25.17;;;20.47;;
6757;SDS011;3416;53.074;8.822;2023-06-22T03:56:07;19.73;;;17.73;;
6757;SDS011;3416;53.074;8.822;2023-06-22T03:58:36;19.43;;;17.40;;
6757;SDS011;3416;53.074;8.822;2023-06-22T04:01:09;22.03;;;19.70;;
6757;SDS011;3416;53.074;8.822;2023-06-22T04:03:37;25.43;;;22.83;;
6757;SDS011;3416;53.074;8.822;2023-06-22T04:06:04;22.10;;;19.30;;
6757;SDS011;3416;53.074;8.822;2023-06-22T04:08:31;22.10;;;19.80;;
6757;SDS011;3416;53.074;8.822;2023-06-22T04:10:58;19.90;;;17.33;;
6757;SDS011;3416;53.074;8.822;2023-06-22T04:13:26;18.83;;;16.83;;
6757;SDS011;3416;53.074;8.822;2023-06-22T04:15:53;20.73;;;18.03;;
6757;SDS011;3416;53.074;8.822;2023-06-22T04:18:21;20.60;;;18.07;;
6757;SDS011;3416;53.074;8.822;2023-06-22T04:20:48;22.33;;;18.27;;
6757;SDS011;3416;53.074;8.822;2023-06-22T04:23:16;20.43;;;18.33;;
6757;SDS011;3416;53.074;8.822;2023-06-22T04:25:45;19.80;;;17.77;;
6757;SDS011;3416;53.074;8.822;2023-06-22T04:28:12;19.50;;;17.50;;
6757;SDS011;3416;53.074;8.822;2023-06-22T04:30:40;20.77;;;18.67;;
6757;SDS011;3416;53.074;8.822;2023-06-22T04:33:11;23.97;;;21.50;;
6757;SDS011;3416;53.074;8.822;2023-06-22T04:35:46;21.50;;;19.27;;
6757;SDS011;3416;53.074;8.822;2023-06-22T04:38:13;22.77;;;20.37;;
6757;SDS011;3416;53.074;8.822;2023-06-22T04:40:40;21.33;;;19.23;;
6757;SDS011;3416;53.074;8.822;2023-06-22T04:43:07;21.43;;;19.30;;
6757;SDS011;3416;53.074;8.822;2023-06-22T04:45:35;21.43;;;19.13;;
6757;SDS011;3416;53.074;8.822;2023-06-22T04:48:03;23.63;;;21.13;;
6757;SDS011;3416;53.074;8.822;2023-06-22T04:50:31;22.43;;;20.13;;
6757;SDS011;3416;53.074;8.822;2023-06-22T04:53:00;25.50;;;22.67;;
6757;SDS011;3416;53.074;8.822;2023-06-22T04:55:30;25.47;;;22.90;;
6757;SDS011;3416;53.074;8.822;2023-06-22T04:57:57;25.93;;;23.13;;
6757;SDS011;3416;53.074;8.822;2023-06-22T05:00:31;21.93;;;19.57;;
6757;SDS011;3416;53.074;8.822;2023-06-22T05:03:01;22.60;;;19.37;;
6757;SDS011;3416;53.074;8.822;2023-06-22T05:05:28;21.43;;;19.40;;
6757;SDS011;3416;53.074;8.822;2023-06-22T05:07:56;23.50;;;19.40;;
6757;SDS011;3416;53.074;8.822;2023-06-22T05:10:27;22.67;;;19.40;;
6757;SDS011;3416;53.074;8.822;2023-06-22T05:12:55;20.20;;;18.10;;
6757;SDS011;3416;53.074;8.822;2023-06-22T05:15:22;20.10;;;17.30;;
6757;SDS011;3416;53.074;8.822;2023-06-22T05:17:53;20.53;;;18.47;;
6757;SDS011;3416;53.074;8.822;2023-06-22T05:20:20;19.60;;;17.50;;
6757;SDS011;3416;53.074;8.822;2023-06-22T05:22:47;21.40;;;19.30;;
6757;SDS011;3416;53.074;8.822;2023-06-22T05:25:13;18.83;;;16.80;;
6757;SDS011;3416;53.074;8.822;2023-06-22T05:27:42;19.47;;;17.47;;
6757;SDS011;3416;53.074;8.822;2023-06-22T05:30:09;19.07;;;17.23;;
6757;SDS011;3416;53.074;8.822;2023-06-22T05:32:37;18.93;;;17.10;;
6757;SDS011;3416;53.074;8.822;2023-06-22T05:35:04;18.37;;;16.57;;
6757;SDS011;3416;53.074;8.822;2023-06-22T05:37:32;17.47;;;15.77;;
6757;SDS011;3416;53.074;8.822;2023-06-22T05:39:59;16.00;;;14.33;;
6757;SDS011;3416;53.074;8.822;2023-06-22T05:42:26;17.60;;;15.70;;
6757;SDS011;3416;53.074;8.822;2023-06-22T05:44:55;16.00;;;13.90;;
6757;SDS011;3416;53.074;8.822;2023-06-22T05:47:24;13.37;;;11.97;;
6757;SDS011;3416;53.074;8.822;2023-06-22T05:49:50;13.40;;;12.10;;
6757;SDS011;3416;53.074;8.822;2023-06-22T05:52:17;17.90;;;13.77;;
6757;SDS011;3416;53.074;8.822;2023-06-22T05:54:44;14.90;;;12.63;;
6757;SDS011;3416;53.074;8.822;2023-06-22T05:57:17;13.13;;;11.83;;
6757;SDS011;3416;53.074;8.822;2023-06-22T05:59:46;14.20;;;11.93;;
6757;SDS011;3416;53.074;8.822;2023-06-22T06:02:15;17.23;;;11.27;;
6757;SDS011;3416;53.074;8.822;2023-06-22T06:04:42;14.47;;;12.97;;
6757;SDS011;3416;53.074;8.822;2023-06-22T06:07:09;14.63;;;11.77;;
6757;SDS011;3416;53.074;8.822;2023-06-22T06:09:36;12.17;;;10.97;;
6757;SDS011;3416;53.074;8.822;2023-06-22T06:12:03;14.23;;;11.17;;
6757;SDS011;3416;53.074;8.822;2023-06-22T06:14:30;10.73;;;9.50;;
6757;SDS011;3416;53.074;8.822;2023-06-22T06:16:57;14.03;;;9.80;;
6757;SDS011;3416;53.074;8.822;2023-06-22T06:19:25;11.10;;;10.00;;
6757;SDS011;3416;53.074;8.822;2023-06-22T06:21:52;9.67;;;8.67;;
6757;SDS011;3416;53.074;8.822;2023-06-22T06:24:19;10.60;;;9.50;;
6757;SDS011;3416;53.074;8.822;2023-06-22T06:26:46;10.57;;;9.57;;
6757;SDS011;3416;53.074;8.822;2023-06-22T06:29:13;11.97;;;10.73;;
6757;SDS011;3416;53.074;8.822;2023-06-22T06:31:41;10.47;;;9.20;;
6757;SDS011;3416;53.074;8.822;2023-06-22T06:34:08;10.67;;;9.50;;
6757;SDS011;3416;53.074;8.822;2023-06-22T06:36:36;10.03;;;9.13;;
6757;SDS011;3416;53.074;8.822;2023-06-22T06:39:03;14.13;;;10.80;;
6757;SDS011;3416;53.074;8.822;2023-06-22T06:41:30;8.93;;;8.10;;
6757;SDS011;3416;53.074;8.822;2023-06-22T06:43:57;9.97;;;8.90;;
6757;SDS011;3416;53.074;8.822;2023-06-22T06:46:25;9.90;;;8.90;;
6757;SDS011;3416;53.074;8.822;2023-06-22T06:48:52;10.17;;;9.17;;
6757;SDS011;3416;53.074;8.822;2023-06-22T06:51:19;9.43;;;8.63;;
6757;SDS011;3416;53.074;8.822;2023-06-22T06:53:47;12.70;;;9.93;;
6757;SDS011;3416;53.074;8.822;2023-06-22T06:56:14;13.13;;;9.77;;
6757;SDS011;3416;53.074;8.822;2023-06-22T06:58:42;10.67;;;9.70;;
6757;SDS011;3416;53.074;8.822;2023-06-22T07:01:10;9.37;;;8.47;;
6757;SDS011;3416;53.074;8.822;2023-06-22T07:03:37;9.90;;;8.90;;
6757;SDS011;3416;53.074;8.822;2023-06-22T07:06:04;11.80;;;9.90;;
6757;SDS011;3416;53.074;8.822;2023-06-22T07:08:31;9.90;;;8.90;;
6757;SDS011;3416;53.074;8.822;2023-06-22T07:10:59;8.07;;;7.40;;
6757;SDS011;3416;53.074;8.822;2023-06-22T07:13:26;8.83;;;7.93;;
6757;SDS011;3416;53.074;8.822;2023-06-22T07:15:53;8.60;;;7.40;;
6757;SDS011;3416;53.074;8.822;2023-06-22T07:18:20;9.10;;;7.53;;
6757;SDS011;3416;53.074;8.822;2023-06-22T07:20:48;8.50;;;6.73;;
6757;SDS011;3416;53.074;8.822;2023-06-22T07:23:16;8.37;;;7.47;;
6757;SDS011;3416;53.074;8.822;2023-06-22T07:25:43;6.40;;;5.80;;
6757;SDS011;3416;53.074;8.822;2023-06-22T07:28:11;8.33;;;6.40;;
6757;SDS011;3416;53.074;8.822;2023-06-22T07:30:38;7.13;;;6.30;;
6757;SDS011;3416;53.074;8.822;2023-06-22T07:33:05;6.30;;;5.80;;
6757;SDS011;3416;53.074;8.822;2023-06-22T07:35:33;7.53;;;6.70;;
6757;SDS011;3416;53.074;8.822;2023-06-22T07:38:00;8.03;;;6.80;;
6757;SDS011;3416;53.074;8.822;2023-06-22T07:40:27;7.47;;;6.77;;
6757;SDS011;3416;53.074;8.822;2023-06-22T07:42:54;7.10;;;6.40;;
6757;SDS011;3416;53.074;8.822;2023-06-22T07:45:23;8.00;;;6.10;;
6757;SDS011;3416;53.074;8.822;2023-06-22T07:47:50;8.10;;;7.40;;
6757;SDS011;3416;53.074;8.822;2023-06-22T07:50:17;8.07;;;7.10;;
6757;SDS011;3416;53.074;8.822;2023-06-22T07:52:43;7.90;;;7.10;;
6757;SDS011;3416;53.074;8.822;2023-06-22T07:55:11;9.20;;;6.33;;
6757;SDS011;3416;53.074;8.822;2023-06-22T07:57:38;7.53;;;6.83;;
6757;SDS011;3416;53.074;8.822;2023-06-22T08:00:07;8.37;;;6.70;;
6757;SDS011;3416;53.074;8.822;2023-06-22T08:02:43;7.50;;;6.80;;
6757;SDS011;3416;53.074;8.822;2023-06-22T08:05:11;7.23;;;6.63;;
6757;SDS011;3416;53.074;8.822;2023-06-22T08:07:39;9.93;;;7.33;;
6757;SDS011;3416;53.074;8.822;2023-06-22T08:10:09;9.03;;;6.80;;
6757;SDS011;3416;53.074;8.822;2023-06-22T08:12:37;8.03;;;6.20;;
6757;SDS011;3416;53.074;8.822;2023-06-22T08:15:05;9.57;;;6.67;;
6757;SDS011;3416;53.074;8.822;2023-06-22T08:17:34;9.63;;;7.00;;
6757;SDS011;3416;53.074;8.822;2023-06-22T08:20:04;9.03;;;7.03;;
6757;SDS011;3416;53.074;8.822;2023-06-22T08:22:35;7.77;;;6.20;;
6757;SDS011;3416;53.074;8.822;2023-06-22T08:25:03;9.50;;;7.17;;
6757;SDS011;3416;53.074;8.822;2023-06-22T08:27:32;7.27;;;6.60;;
6757;SDS011;3416;53.074;8.822;2023-06-22T08:29:59;6.60;;;6.00;;
6757;SDS011;3416;53.074;8.822;2023-06-22T08:32:26;7.70;;;5.90;;
6757;SDS011;3416;53.074;8.822;2023-06-22T08:34:53;7.77;;;6.70;;
6757;SDS011;3416;53.074;8.822;2023-06-22T08:37:23;6.30;;;5.70;;
6757;SDS011;3416;53.074;8.822;2023-06-22T08:39:55;6.00;;;5.20;;
6757;SDS011;3416;53.074;8.822;2023-06-22T08:42:22;6.27;;;5.70;;
6757;SDS011;3416;53.074;8.822;2023-06-22T08:44:50;5.63;;;5.00;;
6757;SDS011;3416;53.074;8.822;2023-06-22T08:47:18;6.33;;;5.77;;
6757;SDS011;3416;53.074;8.822;2023-06-22T08:49:45;6.63;;;6.00;;
6757;SDS011;3416;53.074;8.822;2023-06-22T08:52:13;5.87;;;5.37;;
6757;SDS011;3416;53.074;8.822;2023-06-22T08:54:41;6.13;;;4.80;;
6757;SDS011;3416;53.074;8.822;2023-06-22T08:57:08;5.80;;;5.20;;
6757;SDS011;3416;53.074;8.822;2023-06-22T08:59:36;6.30;;;5.50;;
6757;SDS011;3416;53.074;8.822;2023-06-22T09:02:03;6.20;;;5.73;;
6757;SDS011;3416;53.074;8.822;2023-06-22T09:04:30;6.30;;;4.70;;
6757;SDS011;3416;53.074;8.822;2023-06-22T09:06:59;6.40;;;5.73;;
6757;SDS011;3416;53.074;8.822;2023-06-22T09:09:26;8.13;;;5.83;;
6757;SDS011;3416;53.074;8.822;2023-06-22T09:11:54;5.87;;;5.37;;
6757;SDS011;3416;53.074;8.822;2023-06-22T09:14:21;6.27;;;5.70;;
6757;SDS011;3416;53.074;8.822;2023-06-22T09:16:48;6.13;;;5.33;;
6757;SDS011;3416;53.074;8.822;2023-06-22T09:19:16;6.27;;;5.67;;
6757;SDS011;3416;53.074;8.822;2023-06-22T09:21:43;9.17;;;7.13;;
6757;SDS011;3416;53.074;8.822;2023-06-22T09:24:10;6.90;;;5.53;;
6757;SDS011;3416;53.074;8.822;2023-06-22T09:26:37;5.80;;;5.30;;
6757;SDS011;3416;53.074;8.822;2023-06-22T09:29:06;10.40;;;6.07;;
6757;SDS011;3416;53.074;8.822;2023-06-22T09:31:33;6.63;;;6.07;;
6757;SDS011;3416;53.074;8.822;2023-06-22T09:34:00;6.90;;;6.37;;
6757;SDS011;3416;53.074;8.822;2023-06-22T09:36:26;9.07;;;7.77;;
6757;SDS011;3416;53.074;8.822;2023-06-22T09:38:53;7.60;;;6.90;;
6757;SDS011;3416;53.074;8.822;2023-06-22T09:41:23;7.20;;;6.10;;
6757;SDS011;3416;53.074;8.822;2023-06-22T09:43:50;7.10;;;6.20;;
6757;SDS011;3416;53.074;8.822;2023-06-22T09:46:19;7.47;;;6.77;;
6757;SDS011;3416;53.074;8.822;2023-06-22T09:48:50;7.33;;;6.60;;
6757;SDS011;3416;53.074;8.822;2023-06-22T09:51:17;8.60;;;7.00;;
6757;SDS011;3416;53.074;8.822;2023-06-22T09:53:45;12.00;;;7.40;;
6757;SDS011;3416;53.074;8.822;2023-06-22T09:56:11;7.10;;;6.50;;
6757;SDS011;3416;53.074;8.822;2023-06-22T09:58:40;9.23;;;6.60;;
6757;SDS011;3416;53.074;8.822;2023-06-22T10:01:08;10.10;;;7.07;;
6757;SDS011;3416;53.074;8.822;2023-06-22T10:03:36;8.90;;;7.50;;
6757;SDS011;3416;53.074;8.822;2023-06-22T10:06:03;6.37;;;5.80;;
6757;SDS011;3416;53.074;8.822;2023-06-22T10:08:30;7.73;;;7.00;;
6757;SDS011;3416;53.074;8.822;2023-06-22T10:10:57;9.20;;;6.57;;
6757;SDS011;3416;53.074;8.822;2023-06-22T10:13:24;10.27;;;5.80;;
6757;SDS011;3416;53.074;8.822;2023-06-22T10:15:51;7.40;;;6.57;;
6757;SDS011;3416;53.074;8.822;2023-06-22T10:18:18;10.73;;;7.33;;
6757;SDS011;3416;53.074;8.822;2023-06-22T10:20:47;8.03;;;7.33;;
6757;SDS011;3416;53.074;8.822;2023-06-22T10:23:16;8.73;;;7.00;;
6757;SDS011;3416;53.074;8.822;2023-06-22T10:25:43;8.97;;;6.57;;
6757;SDS011;3416;53.074;8.822;2023-06-22T10:28:10;17.03;;;7.30;;
6757;SDS011;3416;53.074;8.822;2023-06-22T10:30:37;8.17;;;5.77;;
6757;SDS011;3416;53.074;8.822;2023-06-22T10:33:06;9.60;;;6.00;;
6757;SDS011;3416;53.074;8.822;2023-06-22T10:35:33;7.00;;;6.40;;
6757;SDS011;3416;53.074;8.822;2023-06-22T10:38:01;6.60;;;6.00;;
6757;SDS011;3416;53.074;8.822;2023-06-22T10:40:28;7.37;;;6.67;;
6757;SDS011;3416;53.074;8.822;2023-06-22T10:42:55;7.93;;;6.70;;
6757;SDS011;3416;53.074;8.822;2023-06-22T10:45:22;7.53;;;6.40;;
6757;SDS011;3416;53.074;8.822;2023-06-22T10:47:49;6.20;;;5.60;;
6757;SDS011;3416;53.074;8.822;2023-06-22T10:50:16;6.77;;;6.07;;
6757;SDS011;3416;53.074;8.822;2023-06-22T10:52:45;6.00;;;5.50;;
6757;SDS011;3416;53.074;8.822;2023-06-22T10:55:13;6.00;;;5.50;;
6757;SDS011;3416;53.074;8.822;2023-06-22T10:57:40;6.90;;;6.30;;
6757;SDS011;3416;53.074;8.822;2023-06-22T11:00:09;11.63;;;6.50;;
6757;SDS011;3416;53.074;8.822;2023-06-22T11:02:37;7.47;;;6.67;;
6757;SDS011;3416;53.074;8.822;2023-06-22T11:05:04;7.37;;;6.60;;
6757;SDS011;3416;53.074;8.822;2023-06-22T11:07:32;6.70;;;6.20;;
6757;SDS011;3416;53.074;8.822;2023-06-22T11:09:59;7.53;;;6.43;;
6757;SDS011;3416;53.074;8.822;2023-06-22T11:12:27;7.00;;;6.33;;
6757;SDS011;3416;53.074;8.822;2023-06-22T11:14:54;6.90;;;6.20;;
6757;SDS011;3416;53.074;8.822;2023-06-22T11:17:22;10.23;;;6.57;;
6757;SDS011;3416;53.074;8.822;2023-06-22T11:19:49;5.80;;;5.30;;
6757;SDS011;3416;53.074;8.822;2023-06-22T11:22:16;10.63;;;5.80;;
6757;SDS011;3416;53.074;8.822;2023-06-22T11:24:43;10.27;;;5.93;;
6757;SDS011;3416;53.074;8.822;2023-06-22T11:27:10;7.10;;;6.50;;
6757;SDS011;3416;53.074;8.822;2023-06-22T11:29:39;7.10;;;6.50;;
6757;SDS011;3416;53.074;8.822;2023-06-22T11:32:06;6.50;;;6.00;;
6757;SDS011;3416;53.074;8.822;2023-06-22T11:34:33;7.70;;;6.23;;
6757;SDS011;3416;53.074;8.822;2023-06-22T11:37:00;6.43;;;5.83;;
6757;SDS011;3416;53.074;8.822;2023-06-22T11:39:27;5.70;;;5.20;;
6757;SDS011;3416;53.074;8.822;2023-06-22T11:41:54;6.57;;;5.90;;
6757;SDS011;3416;53.074;8.822;2023-06-22T11:44:21;7.93;;;5.93;;
6757;SDS011;3416;53.074;8.822;2023-06-22T11:46:49;6.20;;;5.60;;
6757;SDS011;3416;53.074;8.822;2023-06-22T11:49:16;7.10;;;6.40;;
6757;SDS011;3416;53.074;8.822;2023-06-22T11:51:43;7.53;;;6.83;;
6757;SDS011;3416;53.074;8.822;2023-06-22T11:54:10;6.27;;;5.67;;
6757;SDS011;3416;53.074;8.822;2023-06-22T11:56:37;7.17;;;6.57;;
6757;SDS011;3416;53.074;8.822;2023-06-22T11:59:04;7.03;;;6.00;;
6757;SDS011;3416;53.074;8.822;2023-06-22T12:01:31;8.13;;;6.77;;
6757;SDS011;3416;53.074;8.822;2023-06-22T12:04:02;6.77;;;6.17;;
6757;SDS011;3416;53.074;8.822;2023-06-22T12:06:31;6.60;;;6.00;;
6757;SDS011;3416;53.074;8.822;2023-06-22T12:08:58;5.17;;;4.77;;
6757;SDS011;3416;53.074;8.822;2023-06-22T12:11:25;6.10;;;5.60;;
6757;SDS011;3416;53.074;8.822;2023-06-22T12:13:52;6.20;;;5.43;;
6757;SDS011;3416;53.074;8.822;2023-06-22T12:16:18;6.20;;;5.60;;
6757;SDS011;3416;53.074;8.822;2023-06-22T12:18:46;10.40;;;6.67;;
6757;SDS011;3416;53.074;8.822;2023-06-22T12:21:15;7.00;;;6.40;;
6757;SDS011;3416;53.074;8.822;2023-06-22T12:23:42;6.10;;;5.13;;
6757;SDS011;3416;53.074;8.822;2023-06-22T12:26:08;5.80;;;5.30;;
6757;SDS011;3416;53.074;8.822;2023-06-22T12:28:35;6.30;;;5.80;;
6757;SDS011;3416;53.074;8.822;2023-06-22T12:31:02;5.63;;;5.13;;
6757;SDS011;3416;53.074;8.822;2023-06-22T12:33:29;7.43;;;5.60;;
6757;SDS011;3416;53.074;8.822;2023-06-22T12:35:56;7.07;;;6.47;;
6757;SDS011;3416;53.074;8.822;2023-06-22T12:38:24;6.47;;;5.67;;
6757;SDS011;3416;53.074;8.822;2023-06-22T12:40:51;5.97;;;5.43;;
6757;SDS011;3416;53.074;8.822;2023-06-22T12:43:18;7.10;;;6.57;;
6757;SDS011;3416;53.074;8.822;2023-06-22T12:45:45;6.10;;;5.40;;
6757;SDS011;3416;53.074;8.822;2023-06-22T12:48:12;6.10;;;5.50;;
6757;SDS011;3416;53.074;8.822;2023-06-22T12:50:39;6.87;;;6.10;;
6757;SDS011;3416;53.074;8.822;2023-06-22T12:53:06;8.20;;;5.90;;
6757;SDS011;3416;53.074;8.822;2023-06-22T12:55:34;7.27;;;5.83;;
6757;SDS011;3416;53.074;8.822;2023-06-22T12:58:01;7.40;;;6.80;;
6757;SDS011;3416;53.074;8.822;2023-06-22T13:00:28;5.87;;;5.27;;
6757;SDS011;3416;53.074;8.822;2023-06-22T13:02:54;6.47;;;5.87;;
6757;SDS011;3416;53.074;8.822;2023-06-22T13:05:21;6.33;;;5.70;;
6757;SDS011;3416;53.074;8.822;2023-06-22T13:07:48;6.70;;;6.00;;
6757;SDS011;3416;53.074;8.822;2023-06-22T13:10:15;6.60;;;6.00;;
6757;SDS011;3416;53.074;8.822;2023-06-22T13:12:43;9.27;;;6.53;;
6757;SDS011;3416;53.074;8.822;2023-06-22T13:15:10;6.87;;;6.30;;
6757;SDS011;3416;53.074;8.822;2023-06-22T13:17:37;5.90;;;5.40;;
6757;SDS011;3416;53.074;8.822;2023-06-22T13:20:04;8.40;;;6.40;;
6757;SDS011;3416;53.074;8.822;2023-06-22T13:22:33;8.93;;;7.13;;
6757;SDS011;3416;53.074;8.822;2023-06-22T13:25:05;7.40;;;6.33;;
6757;SDS011;3416;53.074;8.822;2023-06-22T13:27:37;8.40;;;6.73;;
6757;SDS011;3416;53.074;8.822;2023-06-22T13:30:06;7.37;;;6.67;;
6757;SDS011;3416;53.074;8.822;2023-06-22T13:32:34;8.83;;;6.90;;
6757;SDS011;3416;53.074;8.822;2023-06-22T13:35:01;7.13;;;6.53;;
6757;SDS011;3416;53.074;8.822;2023-06-22T13:37:28;7.83;;;6.43;;
6757;SDS011;3416;53.074;8.822;2023-06-22T13:39:55;8.73;;;6.70;;
6757;SDS011;3416;53.074;8.822;2023-06-22T13:42:24;8.10;;;7.30;;
6757;SDS011;3416;53.074;8.822;2023-06-22T13:44:51;7.30;;;6.60;;
6757;SDS011;3416;53.074;8.822;2023-06-22T13:47:20;7.97;;;7.17;;
6757;SDS011;3416;53.074;8.822;2023-06-22T13:49:46;7.50;;;6.90;;
6757;SDS011;3416;53.074;8.822;2023-06-22T13:52:14;9.23;;;7.30;;
6757;SDS011;3416;53.074;8.822;2023-06-22T13:54:40;7.77;;;7.10;;
6757;SDS011;3416;53.074;8.822;2023-06-22T13:57:08;7.07;;;6.43;;
6757;SDS011;3416;53.074;8.822;2023-06-22T13:59:34;8.70;;;6.57;;
6757;SDS011;3416;53.074;8.822;2023-06-22T14:02:01;8.30;;;7.60;;
6757;SDS011;3416;53.074;8.822;2023-06-22T14:04:30;7.53;;;6.83;;
6757;SDS011;3416;53.074;8.822;2023-06-22T14:06:57;8.20;;;7.50;;
6757;SDS011;3416;53.074;8.822;2023-06-22T14:09:24;6.87;;;6.27;;
6757;SDS011;3416;53.074;8.822;2023-06-22T14:11:51;8.63;;;7.47;;
6757;SDS011;3416;53.074;8.822;2023-06-22T14:14:17;7.20;;;6.60;;
6757;SDS011;3416;53.074;8.822;2023-06-22T14:16:44;8.63;;;7.20;;
6757;SDS011;3416;53.074;8.822;2023-06-22T14:19:11;9.90;;;7.10;;
6757;SDS011;3416;53.074;8.822;2023-06-22T14:21:40;7.27;;;6.60;;
6757;SDS011;3416;53.074;8.822;2023-06-22T14:24:07;7.80;;;7.10;;
6757;SDS011;3416;53.074;8.822;2023-06-22T14:26:34;7.57;;;6.93;;
6757;SDS011;3416;53.074;8.822;2023-06-22T14:29:01;9.10;;;8.30;;
6757;SDS011;3416;53.074;8.822;2023-06-22T14:31:31;8.20;;;7.50;;
6757;SDS011;3416;53.074;8.822;2023-06-22T14:33:58;8.60;;;7.80;;
6757;SDS011;3416;53.074;8.822;2023-06-22T14:36:26;7.80;;;7.00;;
6757;SDS011;3416;53.074;8.822;2023-06-22T14:38:56;8.70;;;7.90;;
6757;SDS011;3416;53.074;8.822;2023-06-22T14:41:23;8.17;;;7.30;;
6757;SDS011;3416;53.074;8.822;2023-06-22T14:43:50;8.57;;;7.80;;
6757;SDS011;3416;53.074;8.822;2023-06-22T14:46:18;8.37;;;7.47;;
6757;SDS011;3416;53.074;8.822;2023-06-22T14:48:46;8.53;;;7.67;;
6757;SDS011;3416;53.074;8.822;2023-06-22T14:51:15;7.83;;;7.23;;
6757;SDS011;3416;53.074;8.822;2023-06-22T14:53:49;9.47;;;7.00;;
6757;SDS011;3416;53.074;8.822;2023-06-22T14:56:20;7.43;;;6.83;;
6757;SDS011;3416;53.074;8.822;2023-06-22T14:58:47;7.60;;;7.00;;
6757;SDS011;3416;53.074;8.822;2023-06-22T15:01:16;8.10;;;7.40;;
6757;SDS011;3416;53.074;8.822;2023-06-22T15:03:46;7.90;;;7.20;;
6757;SDS011;3416;53.074;8.822;2023-06-22T15:06:20;8.10;;;7.23;;